createdAt,value
2022-10-29T00:00:28.331Z,11.60
2022-10-29T00:03:16.017Z,11.40
2022-10-29T00:05:43.684Z,10.90
2022-10-29T00:08:11.384Z,12.20
2022-10-29T00:10:39.081Z,11.90
2022-10-29T00:13:06.826Z,12.90
2022-10-29T00:15:34.458Z,12.00
2022-10-29T00:18:02.236Z,10.30
2022-10-29T00:20:29.844Z,13.10
2022-10-29T00:22:57.693Z,9.90
2022-10-29T00:25:25.581Z,11.20
2022-10-29T00:27:53.571Z,11.70
2022-10-29T00:30:21.564Z,9.90
2022-10-29T00:32:49.226Z,10.50
2022-10-29T00:35:16.789Z,10.70
2022-10-29T00:37:44.446Z,12.80
2022-10-29T00:40:12.526Z,11.00
2022-10-29T00:42:40.180Z,11.60
2022-10-29T00:45:14.109Z,11.80
2022-10-29T00:47:42.210Z,13.30
2022-10-29T00:50:11.798Z,12.10
2022-10-29T00:52:41.678Z,10.20
2022-10-29T00:55:10.362Z,11.00
2022-10-29T00:57:40.789Z,11.90
2022-10-29T01:00:09.299Z,13.30
2022-10-29T01:02:38.607Z,11.50
2022-10-29T01:05:07.562Z,11.20
2022-10-29T01:07:35.223Z,12.10
2022-10-29T01:10:03.041Z,8.10
2022-10-29T01:12:49.694Z,13.00
2022-10-29T01:15:27.495Z,12.40
2022-10-29T01:18:01.505Z,11.90
2022-10-29T01:20:40.285Z,12.40
2022-10-29T01:23:26.762Z,12.10
2022-10-29T01:26:03.297Z,10.60
2022-10-29T01:31:16.234Z,12.00
2022-10-29T01:33:53.314Z,10.80
2022-10-29T01:36:33.620Z,10.80
2022-10-29T01:39:25.093Z,11.20
2022-10-29T01:42:04.735Z,10.00
2022-10-29T01:44:38.051Z,9.90
2022-10-29T01:47:08.966Z,10.00
2022-10-29T01:49:42.002Z,9.40
2022-10-29T01:52:11.603Z,13.10
2022-10-29T01:54:43.935Z,10.90
2022-10-29T01:57:26.791Z,11.40
2022-10-29T01:59:56.344Z,10.70
2022-10-29T02:02:26.934Z,9.80
2022-10-29T02:04:55.367Z,13.00
2022-10-29T02:07:44.874Z,11.80
2022-10-29T02:10:15.462Z,10.30
2022-10-29T02:12:47.724Z,10.80
2022-10-29T02:15:33.944Z,13.40
2022-10-29T02:18:03.226Z,11.70
2022-10-29T02:20:31.002Z,9.50
2022-10-29T02:22:58.754Z,10.80
2022-10-29T02:25:26.885Z,10.50
2022-10-29T02:27:54.796Z,11.30
2022-10-29T02:30:22.805Z,9.40
2022-10-29T02:32:50.836Z,9.20
2022-10-29T02:35:18.497Z,12.90
2022-10-29T02:37:46.774Z,8.40
2022-10-29T02:40:14.945Z,12.60
2022-10-29T02:42:42.508Z,12.50
2022-10-29T02:45:12.623Z,9.80
2022-10-29T02:47:40.178Z,12.70
2022-10-29T02:50:09.033Z,12.50
2022-10-29T02:52:36.836Z,13.10
2022-10-29T02:55:04.908Z,12.10
2022-10-29T02:57:32.452Z,10.20
2022-10-29T03:00:00.190Z,12.00
2022-10-29T03:02:28.326Z,10.30
2022-10-29T03:04:56.268Z,11.00
2022-10-29T03:07:23.973Z,12.70
2022-10-29T03:09:51.591Z,9.00
2022-10-29T03:12:19.458Z,15.10
2022-10-29T03:14:47.122Z,13.10
2022-10-29T03:17:14.780Z,14.10
2022-10-29T03:19:42.748Z,10.30
2022-10-29T03:22:10.512Z,11.80
2022-10-29T03:24:38.152Z,9.70
2022-10-29T03:27:05.842Z,13.60
2022-10-29T03:29:33.498Z,12.10
2022-10-29T03:32:01.261Z,10.70
2022-10-29T03:34:29.646Z,11.10
2022-10-29T03:36:58.121Z,10.00
2022-10-29T03:39:26.006Z,9.90
2022-10-29T03:41:53.751Z,12.30
2022-10-29T03:44:21.410Z,10.40
2022-10-29T03:46:49.181Z,12.50
2022-10-29T03:49:17.288Z,11.70
2022-10-29T03:51:45.934Z,11.30
2022-10-29T03:54:13.592Z,12.90
2022-10-29T03:56:41.470Z,12.40
2022-10-29T04:01:42.098Z,11.50
2022-10-29T04:04:10.587Z,12.90
2022-10-29T04:06:38.449Z,14.40
2022-10-29T04:09:06.111Z,15.00
2022-10-29T04:11:33.884Z,14.10
2022-10-29T04:14:01.639Z,13.20
2022-10-29T04:16:29.349Z,10.00
2022-10-29T04:18:57.167Z,12.30
2022-10-29T04:29:48.433Z,9.70
2022-10-29T04:32:16.107Z,10.40
2022-10-29T04:34:43.816Z,11.20
2022-10-29T04:37:11.416Z,13.40
2022-10-29T04:39:39.180Z,11.60
2022-10-29T04:42:07.261Z,15.30
2022-10-29T04:44:34.875Z,12.50
2022-10-29T04:47:03.187Z,13.00
2022-10-29T04:49:31.183Z,11.90
2022-10-29T04:51:59.133Z,14.50
2022-10-29T04:54:26.992Z,11.00
2022-10-29T04:56:54.964Z,12.40
2022-10-29T04:59:22.625Z,11.10
2022-10-29T05:01:50.306Z,13.40
2022-10-29T05:04:17.944Z,12.60
2022-10-29T05:06:46.217Z,13.00
2022-10-29T05:09:14.404Z,11.00
2022-10-29T05:11:42.080Z,11.60
2022-10-29T05:14:09.817Z,15.10
2022-10-29T05:16:37.599Z,16.90
2022-10-29T05:19:06.083Z,15.40
2022-10-29T05:21:33.864Z,12.10
2022-10-29T05:24:01.646Z,14.00
2022-10-29T05:26:31.248Z,10.70
2022-10-29T05:28:58.959Z,13.60
2022-10-29T05:31:26.832Z,11.40
2022-10-29T05:33:55.989Z,13.30
2022-10-29T05:36:23.865Z,12.50
2022-10-29T05:38:51.463Z,12.80
2022-10-29T05:41:19.417Z,15.00
2022-10-29T05:43:50.477Z,11.40
2022-10-29T05:46:18.529Z,14.60
2022-10-29T05:48:46.612Z,11.10
2022-10-29T05:51:14.253Z,11.90
2022-10-29T05:53:42.008Z,14.40
2022-10-29T05:56:09.805Z,13.00
2022-10-29T05:58:38.059Z,11.40
2022-10-29T06:01:07.258Z,13.60
2022-10-29T06:03:34.926Z,13.30
2022-10-29T06:06:02.722Z,12.10
2022-10-29T06:08:31.177Z,15.40
2022-10-29T06:11:03.060Z,14.20
2022-10-29T06:13:31.029Z,15.60
2022-10-29T06:16:17.517Z,12.40
2022-10-29T06:18:45.347Z,13.60
2022-10-29T06:21:13.101Z,14.50
2022-10-29T06:23:40.838Z,13.50
2022-10-29T06:26:09.138Z,12.50
2022-10-29T06:28:37.093Z,12.30
2022-10-29T06:31:05.152Z,13.40
2022-10-29T06:33:33.187Z,13.60
2022-10-29T06:36:01.666Z,14.00
2022-10-29T06:38:29.739Z,12.80
2022-10-29T06:40:57.615Z,13.40
2022-10-29T06:43:25.475Z,12.50
2022-10-29T06:45:53.445Z,13.90
2022-10-29T06:48:22.665Z,14.70
2022-10-29T06:50:51.333Z,13.40
2022-10-29T06:53:19.622Z,10.80
2022-10-29T06:55:47.671Z,11.70
2022-10-29T06:58:17.083Z,14.00
2022-10-29T07:00:45.275Z,16.50
2022-10-29T07:03:14.478Z,11.40
2022-10-29T07:05:42.511Z,11.80
2022-10-29T07:08:10.548Z,14.90
2022-10-29T07:10:38.655Z,13.30
2022-10-29T07:13:06.399Z,11.70
2022-10-29T07:15:34.907Z,12.10
2022-10-29T07:18:06.726Z,16.30
2022-10-29T07:20:35.977Z,12.10
2022-10-29T07:23:04.765Z,13.40
2022-10-29T07:25:34.646Z,15.10
2022-10-29T07:28:07.845Z,12.10
2022-10-29T07:30:36.601Z,13.70
2022-10-29T07:33:04.632Z,14.20
2022-10-29T07:35:33.391Z,13.80
2022-10-29T07:38:05.472Z,13.70
2022-10-29T07:40:46.384Z,13.00
2022-10-29T07:43:14.215Z,16.40
2022-10-29T07:45:43.187Z,15.60
2022-10-29T07:48:10.961Z,12.50
2022-10-29T07:50:39.432Z,10.30
2022-10-29T07:53:07.678Z,12.60
2022-10-29T07:55:36.199Z,15.40
2022-10-29T07:58:06.000Z,13.30
2022-10-29T08:00:35.503Z,9.60
2022-10-29T08:03:03.785Z,12.40
2022-10-29T08:05:31.916Z,12.60
2022-10-29T08:08:00.466Z,15.80
2022-10-29T08:10:29.859Z,15.30
2022-10-29T08:12:59.280Z,12.30
2022-10-29T08:15:28.435Z,15.80
2022-10-29T08:17:57.047Z,10.90
2022-10-29T08:20:26.567Z,11.90
2022-10-29T08:22:55.367Z,11.00
2022-10-29T08:25:23.486Z,10.10
2022-10-29T08:27:58.231Z,12.80
2022-10-29T08:30:26.120Z,9.50
2022-10-29T08:32:54.105Z,16.90
2022-10-29T08:35:22.286Z,14.10
2022-10-29T08:37:50.186Z,13.20
2022-10-29T08:40:35.959Z,11.00
2022-10-29T08:43:09.689Z,17.90
2022-10-29T08:45:44.429Z,13.40
2022-10-29T08:48:18.232Z,14.90
2022-10-29T08:51:06.257Z,15.10
2022-10-29T08:53:38.832Z,14.40
2022-10-29T08:56:10.948Z,13.60
2022-10-29T08:58:45.754Z,15.10
2022-10-29T09:01:21.606Z,11.40
2022-10-29T09:03:51.777Z,10.80
2022-10-29T09:06:27.446Z,13.70
2022-10-29T09:09:24.193Z,16.50
2022-10-29T09:14:29.129Z,9.70
2022-10-29T09:16:57.615Z,11.40
2022-10-29T09:19:25.478Z,12.00
2022-10-29T09:21:57.335Z,12.50
2022-10-29T09:24:28.589Z,14.80
2022-10-29T09:26:57.106Z,12.10
2022-10-29T09:29:28.107Z,12.80
2022-10-29T09:31:59.353Z,11.40
2022-10-29T09:34:32.437Z,12.50
2022-10-29T09:37:02.312Z,13.10
2022-10-29T09:39:35.549Z,10.10
2022-10-29T09:42:09.048Z,12.70
2022-10-29T09:44:52.478Z,11.80
2022-10-29T09:47:39.593Z,11.80
2022-10-29T09:50:17.193Z,10.10
2022-10-29T09:52:46.509Z,11.60
2022-10-29T09:55:20.453Z,14.00
2022-10-29T09:57:50.403Z,9.90
2022-10-29T10:00:26.889Z,10.30
2022-10-29T10:03:00.053Z,13.60
2022-10-29T10:05:30.092Z,9.80
2022-10-29T10:08:07.641Z,11.20
2022-10-29T10:10:37.383Z,9.00
2022-10-29T10:13:06.514Z,11.40
2022-10-29T10:15:37.319Z,14.60
2022-10-29T10:18:04.973Z,11.80
2022-10-29T10:20:34.590Z,16.30
2022-10-29T10:23:17.395Z,11.50
2022-10-29T10:25:45.088Z,14.90
2022-10-29T10:28:19.191Z,14.30
2022-10-29T10:31:06.082Z,13.30
2022-10-29T10:33:35.299Z,23.90
2022-10-29T10:36:07.246Z,11.10
2022-10-29T10:38:39.329Z,10.50
2022-10-29T10:41:10.259Z,8.60
2022-10-29T10:43:42.746Z,9.60
2022-10-29T10:46:24.003Z,9.40
2022-10-29T10:49:03.544Z,10.70
2022-10-29T10:51:33.556Z,10.60
2022-10-29T10:54:04.022Z,10.40
2022-10-29T10:56:32.617Z,9.50
2022-10-29T10:59:12.103Z,10.70
2022-10-29T11:01:42.848Z,20.60
2022-10-29T11:04:11.126Z,17.90
2022-10-29T11:06:44.822Z,7.60
2022-10-29T11:09:22.624Z,13.30
2022-10-29T11:11:53.769Z,10.40
2022-10-29T11:14:30.534Z,38.10
2022-10-29T11:17:01.368Z,11.40
2022-10-29T11:19:31.357Z,9.20
2022-10-29T11:22:08.945Z,12.20
2022-10-29T11:24:44.019Z,10.80
2022-10-29T11:27:24.578Z,53.20
2022-10-29T11:30:02.284Z,29.90
2022-10-29T11:32:33.723Z,15.60
2022-10-29T11:35:20.467Z,13.80
2022-10-29T11:38:04.785Z,7.80
2022-10-29T11:40:35.832Z,9.20
2022-10-29T11:43:09.850Z,7.30
2022-10-29T11:45:49.686Z,9.80
2022-10-29T11:48:36.697Z,7.50
2022-10-29T11:51:07.737Z,14.00
2022-10-29T11:53:51.707Z,8.40
2022-10-29T11:56:39.143Z,10.80
2022-10-29T11:59:13.181Z,8.00
2022-10-29T12:01:57.978Z,9.30
2022-10-29T12:04:41.410Z,8.20
2022-10-29T12:07:21.077Z,9.30
2022-10-29T12:09:52.715Z,7.80
2022-10-29T12:12:20.341Z,10.20
2022-10-29T12:15:08.306Z,13.20
2022-10-29T12:17:55.721Z,10.20
2022-10-29T12:20:27.935Z,10.10
2022-10-29T12:23:05.986Z,10.30
2022-10-29T12:25:37.975Z,8.50
2022-10-29T12:28:05.834Z,8.70
2022-10-29T12:30:36.070Z,10.10
2022-10-29T12:33:07.603Z,8.40
2022-10-29T12:35:52.983Z,13.70
2022-10-29T12:38:53.924Z,8.60
2022-10-29T12:41:26.302Z,12.50
2022-10-29T12:44:01.073Z,16.30
2022-10-29T12:46:34.927Z,16.30
2022-10-29T12:49:05.876Z,14.70
2022-10-29T12:51:42.909Z,13.20
2022-10-29T12:54:11.061Z,15.50
2022-10-29T12:56:39.605Z,17.90
2022-10-29T12:59:28.118Z,14.80
2022-10-29T13:02:10.942Z,16.40
2022-10-29T13:05:01.715Z,18.80
2022-10-29T13:07:29.522Z,13.40
2022-10-29T13:10:16.494Z,14.10
2022-10-29T13:15:15.768Z,16.70
2022-10-29T13:17:48.104Z,14.80
2022-10-29T13:20:21.543Z,14.00
2022-10-29T13:22:52.214Z,14.60
2022-10-29T13:25:28.957Z,10.20
2022-10-29T13:27:57.594Z,10.60
2022-10-29T13:30:26.615Z,10.20
2022-10-29T13:32:55.858Z,9.70
2022-10-29T13:35:27.574Z,13.20
2022-10-29T13:37:56.359Z,9.50
2022-10-29T13:40:33.340Z,12.60
2022-10-29T13:45:31.017Z,10.00
2022-10-29T13:48:01.762Z,8.70
2022-10-29T13:50:30.242Z,10.30
2022-10-29T13:53:00.108Z,10.00
2022-10-29T13:55:31.496Z,9.50
2022-10-29T13:57:59.461Z,8.80
2022-10-29T14:00:28.661Z,9.60
2022-10-29T14:03:13.866Z,10.70
2022-10-29T14:05:47.341Z,12.60
2022-10-29T14:08:27.098Z,8.30
2022-10-29T14:10:58.233Z,10.40
2022-10-29T14:13:28.900Z,10.30
2022-10-29T14:16:06.902Z,9.70
2022-10-29T14:18:37.596Z,10.10
2022-10-29T14:21:07.806Z,8.50
2022-10-29T14:23:35.916Z,7.80
2022-10-29T14:26:04.207Z,11.40
2022-10-29T14:28:32.882Z,10.60
2022-10-29T14:31:14.547Z,10.70
2022-10-29T14:33:44.096Z,11.60
2022-10-29T14:36:30.841Z,19.50
2022-10-29T14:39:01.676Z,15.10
2022-10-29T14:41:30.364Z,16.60
2022-10-29T14:44:11.951Z,16.90
2022-10-29T14:46:40.636Z,13.20
2022-10-29T14:49:17.418Z,11.90
2022-10-29T14:52:06.678Z,12.40
2022-10-29T14:54:36.555Z,13.60
2022-10-29T14:57:06.477Z,11.20
2022-10-29T14:59:35.807Z,12.50
2022-10-29T15:02:32.289Z,13.40
2022-10-29T15:05:01.698Z,14.00
2022-10-29T15:07:34.551Z,12.20
2022-10-29T15:10:08.547Z,12.60
2022-10-29T15:12:39.847Z,14.50
2022-10-29T15:15:11.840Z,21.90
2022-10-29T15:17:47.703Z,16.80
2022-10-29T15:20:26.420Z,13.60
2022-10-29T15:22:56.135Z,12.30
2022-10-29T15:25:32.531Z,10.50
2022-10-29T15:28:02.021Z,10.90
2022-10-29T15:30:35.498Z,11.80
2022-10-29T15:33:13.298Z,8.90
2022-10-29T15:35:54.983Z,12.70
2022-10-29T15:38:51.186Z,12.50
2022-10-29T15:41:20.636Z,12.70
2022-10-29T15:43:50.539Z,15.80
2022-10-29T15:46:21.389Z,13.70
2022-10-29T15:48:49.170Z,12.60
2022-10-29T15:51:17.418Z,13.10
2022-10-29T15:53:45.085Z,11.60
2022-10-29T15:56:13.243Z,12.00
2022-10-29T15:58:41.226Z,12.40
2022-10-29T16:01:09.034Z,10.90
2022-10-29T16:03:39.388Z,9.70
2022-10-29T16:06:07.899Z,12.80
2022-10-29T16:08:38.417Z,11.20
2022-10-29T16:11:11.058Z,11.00
2022-10-29T16:13:39.408Z,12.10
2022-10-29T16:16:17.575Z,10.10
2022-10-29T16:18:46.586Z,10.40
2022-10-29T16:21:15.765Z,9.90
2022-10-29T16:23:44.788Z,10.90
2022-10-29T16:26:15.504Z,12.70
2022-10-29T16:28:48.256Z,11.60
2022-10-29T16:31:17.380Z,12.60
2022-10-29T16:33:45.185Z,13.20
2022-10-29T16:36:12.978Z,13.00
2022-10-29T16:38:40.870Z,12.70
2022-10-29T16:41:11.775Z,15.40
2022-10-29T16:43:40.179Z,17.50
2022-10-29T16:46:08.622Z,13.80
2022-10-29T16:48:36.763Z,13.00
2022-10-29T16:51:05.823Z,15.80
2022-10-29T16:53:34.042Z,17.80
2022-10-29T16:56:01.860Z,16.60
2022-10-29T16:58:31.099Z,18.20
2022-10-29T17:01:05.772Z,17.80
2022-10-29T17:03:34.681Z,16.60
2022-10-29T17:06:07.260Z,17.20
2022-10-29T17:08:35.738Z,18.10
2022-10-29T17:11:06.161Z,16.90
2022-10-29T17:13:34.649Z,17.60
2022-10-29T17:16:16.519Z,16.40
2022-10-29T17:18:44.402Z,18.50
2022-10-29T17:21:12.122Z,19.50
2022-10-29T17:23:39.911Z,18.90
2022-10-29T17:26:07.673Z,19.60
2022-10-29T17:28:38.528Z,20.40
2022-10-29T17:31:07.282Z,20.80
2022-10-29T17:33:35.903Z,17.60
2022-10-29T17:36:06.659Z,15.70
2022-10-29T17:38:35.124Z,20.30
2022-10-29T17:41:04.519Z,17.90
2022-10-29T17:43:33.429Z,15.70
2022-10-29T17:46:01.374Z,15.30
2022-10-29T17:48:29.344Z,15.50
2022-10-29T17:50:58.540Z,18.20
2022-10-29T17:53:28.265Z,21.00
2022-10-29T17:55:59.596Z,19.70
2022-10-29T17:58:28.178Z,19.70
2022-10-29T18:01:02.357Z,19.20
2022-10-29T18:03:30.224Z,15.90
2022-10-29T18:06:02.029Z,17.60
2022-10-29T18:08:30.500Z,15.80
2022-10-29T18:11:09.223Z,17.00
2022-10-29T18:13:41.370Z,17.10
2022-10-29T18:16:10.381Z,15.70
2022-10-29T18:18:54.234Z,17.70
2022-10-29T18:21:27.442Z,15.40
2022-10-29T18:23:55.495Z,17.90
2022-10-29T18:26:23.352Z,19.30
2022-10-29T18:28:52.235Z,18.00
2022-10-29T18:31:20.737Z,16.50
2022-10-29T18:33:48.733Z,18.10
2022-10-29T18:36:17.223Z,16.80
2022-10-29T18:38:49.241Z,17.90
2022-10-29T18:41:17.302Z,16.40
2022-10-29T18:43:45.173Z,13.60
2022-10-29T18:46:13.246Z,15.10
2022-10-29T18:48:42.918Z,16.30
2022-10-29T18:51:12.048Z,19.70
2022-10-29T18:53:40.321Z,17.30
2022-10-29T18:56:12.804Z,18.50
2022-10-29T18:58:43.569Z,17.30
2022-10-29T19:01:13.594Z,17.90
2022-10-29T19:03:42.125Z,17.10
2022-10-29T19:06:11.939Z,21.60
2022-10-29T19:08:41.318Z,19.60
2022-10-29T19:11:17.499Z,19.10
2022-10-29T19:13:52.433Z,22.60
2022-10-29T19:16:20.355Z,20.10
2022-10-29T19:18:48.585Z,17.60
2022-10-29T19:21:18.051Z,21.90
2022-10-29T19:23:46.559Z,20.80
2022-10-29T19:26:17.714Z,19.50
2022-10-29T19:28:46.795Z,16.10
2022-10-29T19:31:16.915Z,19.40
2022-10-29T19:33:48.778Z,19.40
2022-10-29T19:36:16.860Z,20.30
2022-10-29T19:38:45.023Z,24.90
2022-10-29T19:41:13.302Z,125.60
2022-10-29T19:43:41.235Z,84.20
2022-10-29T19:46:10.050Z,72.30
2022-10-29T19:48:38.633Z,69.90
2022-10-29T19:51:06.946Z,51.40
2022-10-29T19:53:34.982Z,45.80
2022-10-29T19:56:03.040Z,28.90
2022-10-29T19:58:33.779Z,48.50
2022-10-29T20:01:05.641Z,48.70
2022-10-29T20:03:35.696Z,30.30
2022-10-29T20:06:07.724Z,22.60
2022-10-29T20:08:38.728Z,30.60
2022-10-29T20:11:07.779Z,24.80
2022-10-29T20:13:37.171Z,26.90
2022-10-29T20:16:09.432Z,25.80
2022-10-29T20:18:38.489Z,27.00
2022-10-29T20:23:40.928Z,28.00
2022-10-29T20:26:09.205Z,22.80
2022-10-29T20:28:37.373Z,22.60
2022-10-29T20:31:20.312Z,21.50
2022-10-29T20:33:49.285Z,18.90
2022-10-29T20:36:17.109Z,19.00
2022-10-29T20:38:48.930Z,17.30
2022-10-29T20:41:18.201Z,17.80
2022-10-29T20:43:48.352Z,22.90
2022-10-29T20:46:16.284Z,21.30
2022-10-29T20:48:44.046Z,24.50
2022-10-29T20:51:12.241Z,25.70
2022-10-29T20:53:40.505Z,27.10
2022-10-29T20:56:13.181Z,25.40
2022-10-29T20:58:44.635Z,26.00
2022-10-29T21:01:16.668Z,25.40
2022-10-29T21:03:45.117Z,33.50
2022-10-29T21:06:16.915Z,31.00
2022-10-29T21:08:49.404Z,40.40
2022-10-29T21:11:18.526Z,35.20
2022-10-29T21:13:46.980Z,38.70
2022-10-29T21:16:18.047Z,36.20
2022-10-29T21:18:47.213Z,36.10
2022-10-29T21:21:16.040Z,38.00
2022-10-29T21:23:44.819Z,30.50
2022-10-29T21:26:14.453Z,28.60
2022-10-29T21:28:42.473Z,25.50
2022-10-29T21:31:10.949Z,24.40
2022-10-29T21:33:38.813Z,26.20
2022-10-29T21:36:07.504Z,22.80
2022-10-29T21:38:35.672Z,18.20
2022-10-29T21:41:03.378Z,17.30
2022-10-29T21:43:31.304Z,18.50
2022-10-29T21:45:59.391Z,17.70
2022-10-29T21:48:27.959Z,20.20
2022-10-29T21:51:02.809Z,23.70
2022-10-29T21:53:31.062Z,21.40
2022-10-29T21:56:00.258Z,19.00
2022-10-29T21:58:29.167Z,21.50
2022-10-29T22:01:15.961Z,20.20
2022-10-29T22:03:44.750Z,20.90
2022-10-29T22:06:14.559Z,18.70
2022-10-29T22:08:42.835Z,20.50
2022-10-29T22:11:11.458Z,17.80
2022-10-29T22:13:39.181Z,17.70
2022-10-29T22:16:08.196Z,19.20
2022-10-29T22:18:36.665Z,16.10
2022-10-29T22:21:14.998Z,20.30
2022-10-29T22:23:44.597Z,20.20
2022-10-29T22:26:13.639Z,18.40
2022-10-29T22:28:41.743Z,17.80
2022-10-29T22:31:09.737Z,22.20
2022-10-29T22:33:37.579Z,20.40
2022-10-29T22:36:09.741Z,18.80
2022-10-29T22:38:37.465Z,21.20
2022-10-29T22:41:08.912Z,21.20
2022-10-29T22:43:37.190Z,20.60
2022-10-29T22:46:05.810Z,22.30
2022-10-29T22:48:34.152Z,19.10
2022-10-29T22:51:06.407Z,19.10
2022-10-29T22:53:37.406Z,19.20
2022-10-29T22:56:05.574Z,19.50
2022-10-29T22:58:33.949Z,21.20
2022-10-29T23:01:09.367Z,22.30
2022-10-29T23:03:38.599Z,21.40
2022-10-29T23:06:07.446Z,23.30
2022-10-29T23:08:35.435Z,24.90
2022-10-29T23:11:19.772Z,22.10
2022-10-29T23:14:08.136Z,25.90
2022-10-29T23:16:36.241Z,25.90
2022-10-29T23:19:05.111Z,29.70
2022-10-29T23:21:33.455Z,29.60
2022-10-29T23:24:01.564Z,25.30
2022-10-29T23:26:29.437Z,24.50
2022-10-29T23:28:57.290Z,23.50
2022-10-29T23:31:26.108Z,26.60
2022-10-29T23:33:55.132Z,23.40
2022-10-29T23:36:27.236Z,25.40
2022-10-29T23:38:56.230Z,24.80
2022-10-29T23:41:24.400Z,24.20
2022-10-29T23:43:52.681Z,20.80
2022-10-29T23:46:20.852Z,23.00
2022-10-29T23:48:48.611Z,23.10
2022-10-29T23:51:16.786Z,23.20
2022-10-29T23:53:44.447Z,24.10
2022-10-29T23:56:12.313Z,25.90
2022-10-29T23:58:40.077Z,23.80
